Webcam Flughafen St.Gallen-Altenrhein

Live-Bilder und Zeitraffer LSZR / ACH.

 

Live aus Altenrhein
LIVE
LSZR 220920Z VRB02KT 9999 FEW025 BKN040 13/09 Q1019 NOSIG RMK F
Zeitraffer heute
2019-05-22 00:14:48
LSZR 212150Z AUTO 23007KT 200V280 9999 -RA BKN048 SCT060 12/10 Q1017
Zeitraffer gestern
2019-05-21 00:13:58
LSZR 202150Z AUTO 26011KT 220V290 9999 -RA SCT036 SCT041 BKN050 13/11 Q1008
Zeitraffer vor 3 Tagen
2019-05-19 00:14:54
LSZR 182150Z AUTO 29010KT 9999 OVC042 14/11 Q1005